Time;durP1;ratioP1;P1;durP2;ratioP2;P2;SDS_P1;SDS_P2;PMS_P1;PMS_P2;Temp;Humidity;BMP_temperature;BMP_pressure;BME280_temperature;BME280_humidity;BME280_pressure;Samples;Min_cycle;Max_cycle;Signal;HPM_P1;HPM_P2
2020/12/13 00:00:57;;;;;;;34.03;17.57;;;3.00;91.60;;;;;;5028348;28;20048;-74
2020/12/13 00:03:22;;;;;;;33.30;17.13;;;3.00;91.60;;;;;;5027517;28;20033;-72
2020/12/13 00:05:48;;;;;;;33.03;18.67;;;3.00;91.40;;;;;;5026186;28;20036;-71
2020/12/13 00:08:14;;;;;;;35.25;17.90;;;3.00;91.50;;;;;;5030310;28;20478;-75
2020/12/13 00:10:40;;;;;;;35.10;18.77;;;3.00;91.60;;;;;;5032027;28;20096;-73
2020/12/13 00:13:05;;;;;;;34.90;19.17;;;3.00;91.50;;;;;;5032427;28;20030;-74
2020/12/13 00:15:31;;;;;;;34.00;18.10;;;2.90;91.60;;;;;;5023329;28;20041;-73
2020/12/13 00:17:57;;;;;;;33.28;18.23;;;2.90;91.70;;;;;;5026464;28;20029;-70
2020/12/13 00:20:23;;;;;;;32.60;18.35;;;2.90;91.70;;;;;;5029132;28;20037;-73
2020/12/13 00:22:48;;;;;;;35.67;20.38;;;3.00;91.60;;;;;;5029517;28;20029;-72
2020/12/13 00:25:14;;;;;;;35.38;18.80;;;3.00;91.50;;;;;;5032133;28;20045;-73
2020/12/13 00:27:40;;;;;;;33.03;18.23;;;3.00;91.60;;;;;;5028711;28;20548;-71
2020/12/13 00:30:07;;;;;;;38.50;20.27;;;3.00;91.60;;;;;;5026247;28;20034;-73
2020/12/13 00:32:32;;;;;;;37.63;20.45;;;3.00;91.50;;;;;;5028757;28;20041;-73
2020/12/13 00:34:58;;;;;;;35.28;19.13;;;3.00;91.50;;;;;;5028730;28;20033;-73
2020/12/13 00:37:25;;;;;;;33.38;17.88;;;3.00;91.60;;;;;;5020083;28;20030;-73
2020/12/13 00:39:51;;;;;;;37.03;18.90;;;3.10;91.50;;;;;;5026664;28;20053;-73
2020/12/13 00:42:17;;;;;;;35.38;17.73;;;3.00;91.40;;;;;;5028255;28;20451;-72
2020/12/13 00:44:44;;;;;;;34.40;18.48;;;3.00;91.40;;;;;;5027817;28;20041;-73
2020/12/13 00:47:10;;;;;;;34.10;19.83;;;3.00;91.50;;;;;;5027482;28;20021;-74
2020/12/13 00:49:35;;;;;;;35.15;18.70;;;3.00;91.60;;;;;;5032215;28;20061;-72
2020/12/13 00:52:03;;;;;;;36.75;19.73;;;3.00;91.60;;;;;;5026120;28;20556;-72
2020/12/13 00:54:29;;;;;;;35.67;19.75;;;3.00;91.70;;;;;;5026822;28;20034;-73
2020/12/13 00:56:55;;;;;;;33.83;18.58;;;3.00;91.60;;;;;;5029394;28;20018;-72
2020/12/13 00:59:21;;;;;;;38.92;21.08;;;3.10;91.60;;;;;;5029329;28;20048;-72
2020/12/13 01:01:47;;;;;;;36.13;19.20;;;3.00;91.50;;;;;;5031162;28;20371;-71
2020/12/13 01:04:12;;;;;;;31.20;17.70;;;3.00;91.60;;;;;;5029794;28;20033;-72
2020/12/13 01:06:38;;;;;;;33.70;18.48;;;3.00;91.70;;;;;;5029432;28;20029;-73
2020/12/13 01:09:04;;;;;;;33.33;19.02;;;3.00;91.80;;;;;;5031207;28;20029;-74
2020/12/13 01:11:32;;;;;;;29.40;17.77;;;3.00;91.70;;;;;;5028869;28;20040;-73
2020/12/13 01:13:58;;;;;;;35.97;19.00;;;3.00;91.80;;;;;;5031130;28;20422;-73
2020/12/13 01:16:25;;;;;;;28.85;17.50;;;2.90;91.70;;;;;;5032476;28;20433;-73
2020/12/13 01:18:52;;;;;;;32.92;17.08;;;2.90;91.70;;;;;;5029147;28;20382;-73
2020/12/13 01:21:24;;;;;;;33.15;17.45;;;2.90;91.70;;;;;;5024936;28;20064;-72
2020/12/13 01:23:50;;;;;;;36.22;19.65;;;3.00;91.90;;;;;;5029596;28;20379;-74
2020/12/13 01:26:17;;;;;;;35.97;19.20;;;2.90;91.90;;;;;;5028423;28;20494;-71
2020/12/13 01:28:44;;;;;;;36.28;18.52;;;3.00;92.00;;;;;;5030830;28;20021;-74
2020/12/13 01:31:13;;;;;;;37.40;19.27;;;3.00;91.90;;;;;;5027282;28;20060;-71
2020/12/13 01:33:39;;;;;;;32.67;19.27;;;3.00;91.90;;;;;;5031452;28;20386;-73
2020/12/13 01:36:10;;;;;;;35.10;18.45;;;3.00;92.00;;;;;;5030045;28;20021;-73
2020/12/13 01:38:36;;;;;;;39.00;20.30;;;3.00;91.90;;;;;;5028353;28;20060;-73
2020/12/13 01:41:02;;;;;;;34.60;18.52;;;3.00;92.00;;;;;;5029586;28;20091;-72
2020/12/13 01:43:27;;;;;;;38.20;20.65;;;2.90;92.00;;;;;;5029024;28;20036;-74
2020/12/13 01:45:53;;;;;;;36.05;18.67;;;2.90;92.10;;;;;;5028972;28;20030;-72
2020/12/13 01:48:20;;;;;;;31.42;19.33;;;2.90;92.00;;;;;;5028317;28;20026;-74
2020/12/13 01:51:01;;;;;;;31.65;18.00;;;3.00;91.90;;;;;;5029764;28;20394;-73
2020/12/13 01:53:31;;;;;;;32.60;18.13;;;2.90;92.00;;;;;;5029181;28;20137;-74
2020/12/13 01:55:57;;;;;;;34.97;19.27;;;2.90;92.00;;;;;;5028762;28;20058;-73
2020/12/13 01:58:33;;;;;;;33.88;19.05;;;2.90;92.10;;;;;;5031106;28;20536;-74
2020/12/13 02:01:01;;;;;;;29.67;17.55;;;2.90;92.00;;;;;;5031240;28;20083;-74
2020/12/13 02:03:34;;;;;;;32.25;17.92;;;3.00;92.00;;;;;;5029486;28;20079;-72
2020/12/13 02:06:05;;;;;;;38.90;20.00;;;3.00;91.90;;;;;;5029396;28;20383;-72
2020/12/13 02:08:39;;;;;;;33.22;18.48;;;3.10;91.90;;;;;;5028714;28;20036;-72
2020/12/13 02:11:06;;;;;;;32.45;19.52;;;3.10;91.80;;;;;;5026594;28;20033;-74
2020/12/13 02:13:32;;;;;;;32.72;18.42;;;3.00;91.80;;;;;;5031628;28;20030;-72
2020/12/13 02:15:59;;;;;;;35.67;19.48;;;3.10;91.90;;;;;;5030181;28;20068;-74
2020/12/13 02:18:26;;;;;;;36.55;19.70;;;3.00;92.00;;;;;;5031783;28;20033;-73
2020/12/13 02:20:53;;;;;;;37.53;20.45;;;3.00;92.00;;;;;;5050287;28;20046;-74
2020/12/13 02:23:19;;;;;;;32.35;19.73;;;3.00;92.00;;;;;;5034187;28;20488;-72
2020/12/13 02:25:44;;;;;;;35.53;19.33;;;3.00;92.10;;;;;;5035335;28;20033;-72
2020/12/13 02:28:10;;;;;;;37.55;19.65;;;2.90;92.20;;;;;;5032040;28;20501;-74
2020/12/13 02:30:36;;;;;;;35.65;19.25;;;2.90;92.30;;;;;;5031887;28;21814;-75
2020/12/13 02:33:02;;;;;;;32.78;18.55;;;2.90;92.30;;;;;;5032998;28;20167;-74
2020/12/13 02:35:28;;;;;;;29.75;17.30;;;2.90;92.20;;;;;;5032894;28;20437;-73
2020/12/13 02:37:53;;;;;;;31.08;18.33;;;2.90;92.30;;;;;;5022921;28;20036;-73
2020/12/13 02:40:20;;;;;;;29.55;16.80;;;2.90;92.30;;;;;;5036219;28;20037;-74
2020/12/13 02:42:46;;;;;;;32.33;17.27;;;3.00;92.20;;;;;;5031456;28;20033;-73
2020/12/13 02:45:12;;;;;;;27.88;17.95;;;2.90;92.20;;;;;;5031624;28;20083;-73
2020/12/13 02:47:38;;;;;;;29.48;16.23;;;3.00;92.20;;;;;;5031317;28;20021;-73
2020/12/13 02:50:04;;;;;;;29.23;16.67;;;3.00;92.40;;;;;;5032484;28;20017;-72
2020/12/13 02:52:30;;;;;;;28.80;17.67;;;3.00;92.30;;;;;;5036491;28;20375;-73
2020/12/13 02:54:56;;;;;;;27.70;15.48;;;3.00;92.00;;;;;;5032552;28;20032;-73
2020/12/13 02:57:22;;;;;;;28.70;17.38;;;3.00;92.20;;;;;;5034214;28;20025;-72
2020/12/13 02:59:47;;;;;;;28.05;16.98;;;3.00;92.20;;;;;;5031286;28;20562;-72
2020/12/13 03:02:13;;;;;;;28.90;15.95;;;3.00;92.10;;;;;;5031104;28;20030;-74
2020/12/13 03:04:39;;;;;;;28.42;16.17;;;3.00;92.10;;;;;;5034188;28;20036;-74
2020/12/13 03:07:05;;;;;;;27.73;15.02;;;3.10;92.20;;;;;;5032999;28;20183;-73
2020/12/13 03:09:30;;;;;;;25.27;14.75;;;3.10;91.90;;;;;;5031871;28;20537;-73
2020/12/13 03:11:56;;;;;;;24.83;15.48;;;3.10;91.90;;;;;;5031727;28;20374;-72
2020/12/13 03:14:22;;;;;;;24.40;15.00;;;3.10;91.80;;;;;;5033739;28;20025;-74
2020/12/13 03:16:48;;;;;;;22.27;13.43;;;3.00;91.90;;;;;;5033653;28;20061;-74
2020/12/13 03:19:13;;;;;;;24.33;14.57;;;3.10;91.80;;;;;;5030505;28;20052;-73
2020/12/13 03:21:39;;;;;;;24.15;13.68;;;3.10;91.80;;;;;;5032178;28;20036;-74
2020/12/13 03:24:05;;;;;;;23.42;13.95;;;3.10;91.70;;;;;;5031346;28;20026;-73
2020/12/13 03:26:31;;;;;;;22.13;13.80;;;3.10;91.60;;;;;;5032306;28;20537;-73
2020/12/13 03:28:56;;;;;;;25.10;13.82;;;3.10;91.60;;;;;;5031183;28;20026;-72
2020/12/13 03:31:22;;;;;;;22.05;13.18;;;3.20;91.50;;;;;;5031396;28;20038;-73
2020/12/13 03:33:48;;;;;;;21.88;13.38;;;3.20;91.70;;;;;;5031417;28;20380;-74
2020/12/13 03:36:14;;;;;;;23.85;12.75;;;3.20;91.60;;;;;;5030368;28;20025;-74
2020/12/13 03:38:40;;;;;;;21.65;12.48;;;3.20;91.50;;;;;;5033519;28;20481;-74
2020/12/13 03:41:06;;;;;;;23.52;14.35;;;3.20;91.60;;;;;;5031054;28;20494;-72
2020/12/13 03:43:31;;;;;;;21.25;13.73;;;3.20;91.50;;;;;;5034232;28;20039;-74
2020/12/13 03:45:57;;;;;;;23.08;13.50;;;3.20;91.70;;;;;;5032662;28;20033;-74
2020/12/13 03:48:23;;;;;;;23.55;13.98;;;3.20;91.70;;;;;;5032513;28;20100;-72
2020/12/13 03:50:48;;;;;;;22.75;14.43;;;3.20;91.50;;;;;;5033662;28;20551;-73
2020/12/13 03:53:15;;;;;;;21.05;12.30;;;3.20;91.40;;;;;;5031504;28;20036;-72
2020/12/13 03:55:41;;;;;;;18.35;12.75;;;3.20;91.40;;;;;;5033577;28;20022;-72
2020/12/13 03:58:08;;;;;;;22.45;13.18;;;3.20;91.40;;;;;;5031971;28;20087;-72
2020/12/13 04:00:34;;;;;;;20.30;12.55;;;3.20;91.40;;;;;;5030778;28;20044;-72
2020/12/13 04:03:02;;;;;;;19.08;12.43;;;3.10;91.50;;;;;;5033153;28;20089;-74
2020/12/13 04:05:28;;;;;;;23.83;13.07;;;3.20;91.30;;;;;;5031602;28;20489;-72
2020/12/13 04:07:54;;;;;;;17.83;12.23;;;3.20;91.40;;;;;;5032228;28;20048;-74
2020/12/13 04:10:20;;;;;;;21.42;12.82;;;3.20;91.40;;;;;;5032519;28;20025;-73
2020/12/13 04:12:47;;;;;;;20.63;13.35;;;3.20;91.30;;;;;;5031158;28;20144;-74
2020/12/13 04:15:13;;;;;;;18.67;12.13;;;3.20;91.20;;;;;;5029996;28;20483;-74
2020/12/13 04:17:39;;;;;;;20.77;12.32;;;3.30;91.00;;;;;;5027147;28;20029;-72
2020/12/13 04:20:06;;;;;;;18.00;11.48;;;3.30;91.00;;;;;;5032214;28;20402;-72
2020/12/13 04:22:32;;;;;;;19.48;13.10;;;3.30;91.10;;;;;;5032873;28;20032;-74
2020/12/13 04:24:58;;;;;;;18.38;12.25;;;3.20;91.10;;;;;;5031287;28;20036;-72
2020/12/13 04:27:24;;;;;;;23.00;12.73;;;3.30;91.10;;;;;;5030399;28;20026;-74
2020/12/13 04:29:50;;;;;;;19.65;12.35;;;3.20;91.10;;;;;;5030414;28;20101;-72
2020/12/13 04:32:16;;;;;;;22.30;13.07;;;3.30;90.90;;;;;;5030322;28;20050;-72
2020/12/13 04:34:41;;;;;;;23.08;14.95;;;3.30;90.80;;;;;;5032228;28;20018;-74
2020/12/13 04:37:08;;;;;;;22.45;13.98;;;3.20;90.90;;;;;;5028491;28;20032;-74
2020/12/13 04:39:37;;;;;;;21.83;14.02;;;3.20;91.00;;;;;;5030967;28;20134;-73
2020/12/13 04:42:03;;;;;;;21.65;14.82;;;3.20;91.10;;;;;;5030341;28;20162;-74
2020/12/13 04:44:30;;;;;;;21.98;13.80;;;3.30;91.00;;;;;;5029179;28;20021;-73
2020/12/13 04:47:01;;;;;;;24.05;15.55;;;3.30;90.80;;;;;;5029662;28;20113;-74
2020/12/13 04:49:29;;;;;;;;;;;3.30;91.00;;;;;;5032653;28;20057;-75
2020/12/13 04:52:00;;;;;;;24.90;15.07;;;3.20;91.00;;;;;;5029792;28;19909;-74
2020/12/13 04:54:28;;;;;;;23.58;14.73;;;3.20;91.00;;;;;;5032324;28;20025;-73
2020/12/13 04:56:56;;;;;;;24.17;14.38;;;3.30;91.00;;;;;;5030115;28;20096;-73
2020/12/13 04:59:22;;;;;;;24.85;14.73;;;3.20;91.00;;;;;;5030199;28;20018;-72
2020/12/13 05:01:48;;;;;;;23.23;15.10;;;3.30;91.00;;;;;;5031812;28;20532;-73
2020/12/13 05:04:16;;;;;;;22.67;14.68;;;3.30;91.10;;;;;;5031585;28;20025;-73
2020/12/13 05:06:43;;;;;;;23.35;14.82;;;3.30;91.00;;;;;;5030254;28;20025;-75
2020/12/13 05:09:10;;;;;;;22.20;13.57;;;3.30;91.00;;;;;;5029976;28;20078;-73
2020/12/13 05:11:42;;;;;;;21.50;13.02;;;3.30;90.90;;;;;;5029982;28;20092;-74
2020/12/13 05:14:08;;;;;;;23.70;15.18;;;3.30;90.70;;;;;;5030329;28;20057;-74
2020/12/13 05:16:34;;;;;;;21.50;12.15;;;3.30;90.70;;;;;;5032566;28;20116;-74
2020/12/13 05:19:00;;;;;;;22.17;13.25;;;3.30;90.90;;;;;;5029236;28;20022;-74
2020/12/13 05:21:26;;;;;;;24.58;13.73;;;3.30;90.60;;;;;;5027896;28;20117;-74
2020/12/13 05:23:52;;;;;;;24.83;14.25;;;3.30;90.70;;;;;;5029571;28;20036;-72
2020/12/13 05:26:22;;;;;;;25.65;15.25;;;3.20;90.70;;;;;;5028682;28;20057;-72
2020/12/13 05:28:50;;;;;;;26.15;14.93;;;3.20;90.90;;;;;;5032194;28;20025;-74
2020/12/13 05:31:18;;;;;;;22.92;15.35;;;3.20;91.00;;;;;;5031632;28;20128;-72
2020/12/13 05:33:47;;;;;;;26.63;14.75;;;3.20;90.90;;;;;;5029288;28;20359;-72
2020/12/13 05:36:15;;;;;;;29.02;16.13;;;3.20;90.90;;;;;;5028940;28;20025;-74
2020/12/13 05:38:41;;;;;;;25.02;14.63;;;3.30;91.10;;;;;;5029264;28;20110;-74
2020/12/13 05:41:10;;;;;;;31.00;17.17;;;3.30;91.10;;;;;;5029155;28;20505;-74
2020/12/13 05:51:41;;;;;;;34.20;18.05;;;3.20;90.90;;;;;;5008584;28;20032;-74
2020/12/13 05:54:24;;;;;;;32.83;18.95;;;3.20;91.00;;;;;;5007382;28;20038;-72
2020/12/13 05:56:58;;;;;;;39.20;19.45;;;3.10;91.00;;;;;;5009000;28;20133;-72
2020/12/13 05:59:25;;;;;;;39.55;20.45;;;3.10;90.90;;;;;;5008334;28;20080;-74
2020/12/13 06:01:58;;;;;;;40.67;19.52;;;3.10;91.30;;;;;;5009130;28;20053;-74
2020/12/13 06:04:32;;;;;;;36.67;19.67;;;3.10;91.10;;;;;;5010617;28;20376;-72
2020/12/13 06:07:03;;;;;;;41.53;19.67;;;3.10;90.90;;;;;;5006784;28;20038;-72
2020/12/13 06:09:36;;;;;;;40.75;21.08;;;3.10;91.00;;;;;;5007256;28;20026;-72
2020/12/13 06:12:13;;;;;;;40.00;19.10;;;3.10;91.10;;;;;;5007885;28;20040;-74
2020/12/13 06:14:41;;;;;;;39.35;20.38;;;3.10;91.20;;;;;;5007434;28;20543;-74
2020/12/13 06:17:08;;;;;;;37.65;19.27;;;3.00;91.20;;;;;;5008332;28;20034;-74
2020/12/13 06:19:37;;;;;;;41.67;19.63;;;3.00;91.10;;;;;;5009279;28;20112;-75
2020/12/13 06:22:03;;;;;;;42.45;21.08;;;3.10;91.10;;;;;;5010061;28;20034;-72
2020/12/13 06:24:30;;;;;;;38.83;20.42;;;3.10;91.00;;;;;;5007382;28;20034;-74
2020/12/13 06:26:56;;;;;;;37.97;20.35;;;3.10;91.00;;;;;;5026355;28;22081;-74
2020/12/13 06:29:24;;;;;;;41.17;20.92;;;3.00;91.10;;;;;;5028710;28;20101;-74
2020/12/13 06:31:52;;;;;;;38.40;20.23;;;3.00;91.00;;;;;;5030296;28;20052;-73
2020/12/13 06:34:18;;;;;;;40.42;20.08;;;3.00;91.10;;;;;;5030812;28;20037;-75
2020/12/13 06:36:44;;;;;;;37.85;20.42;;;3.00;91.10;;;;;;5028667;28;20379;-72
2020/12/13 06:39:16;;;;;;;38.90;21.48;;;3.00;91.00;;;;;;5028743;28;20025;-72
2020/12/13 06:41:48;;;;;;;36.13;20.42;;;3.00;91.10;;;;;;5031175;28;20072;-75
2020/12/13 06:44:15;;;;;;;44.38;22.88;;;3.00;90.90;;;;;;5029972;28;20513;-73
2020/12/13 06:46:43;;;;;;;38.83;21.02;;;3.00;91.00;;;;;;5030536;28;20379;-73
2020/12/13 06:49:14;;;;;;;41.88;21.83;;;3.10;90.80;;;;;;5029473;28;20083;-73
2020/12/13 06:51:41;;;;;;;44.00;21.73;;;3.10;90.80;;;;;;5027989;28;20052;-75
2020/12/13 06:54:12;;;;;;;41.95;22.65;;;3.10;90.70;;;;;;5030426;28;20459;-72
2020/12/13 06:56:42;;;;;;;37.88;21.27;;;3.10;91.00;;;;;;5028882;28;20410;-73
2020/12/13 06:59:09;;;;;;;41.75;21.42;;;3.10;91.00;;;;;;5028859;28;23093;-72
2020/12/13 07:01:39;;;;;;;42.70;23.27;;;3.10;90.90;;;;;;5035155;28;20042;-74
2020/12/13 07:07:07;;;;;;;39.65;19.90;;;3.10;91.20;;;;;;5026882;28;20033;-72
2020/12/13 07:09:33;;;;;;;42.08;20.58;;;3.20;91.10;;;;;;5031244;28;20036;-72
2020/12/13 07:12:01;;;;;;;39.53;21.13;;;3.30;91.10;;;;;;5031055;28;20104;-72
2020/12/13 07:14:30;;;;;;;38.83;20.48;;;3.30;91.00;;;;;;5032622;28;20083;-74
2020/12/13 07:17:01;;;;;;;38.33;21.20;;;3.30;90.90;;;;;;5032607;28;20026;-74
2020/12/13 07:19:40;;;;;;;39.85;21.25;;;3.20;91.10;;;;;;5035094;28;20040;-72
2020/12/13 07:22:08;;;;;;;43.03;22.30;;;3.20;91.10;;;;;;5034228;28;20072;-74
2020/12/13 07:24:34;;;;;;;41.90;21.05;;;3.10;91.50;;;;;;5031312;28;20042;-72
2020/12/13 07:27:00;;;;;;;36.45;19.50;;;3.10;91.50;;;;;;5032073;28;20032;-74
2020/12/13 07:29:28;;;;;;;36.70;20.58;;;3.20;91.30;;;;;;5032674;28;20549;-73
2020/12/13 07:31:54;;;;;;;39.13;19.95;;;3.30;91.00;;;;;;5031695;28;20056;-74
2020/12/13 07:34:21;;;;;;;41.67;21.27;;;3.30;91.10;;;;;;5034071;28;20048;-74
2020/12/13 07:36:47;;;;;;;36.42;18.65;;;3.30;90.90;;;;;;5032019;28;20034;-74
2020/12/13 07:39:15;;;;;;;34.83;18.90;;;3.30;90.80;;;;;;5031817;28;20021;-72
2020/12/13 07:41:42;;;;;;;32.80;17.95;;;3.30;90.70;;;;;;5031933;28;20022;-71
2020/12/13 07:44:13;;;;;;;29.85;16.60;;;3.20;90.90;;;;;;5030729;28;20033;-73
2020/12/13 07:46:40;;;;;;;35.03;17.90;;;3.20;90.80;;;;;;5031337;28;20052;-73
2020/12/13 07:49:17;;;;;;;37.08;19.70;;;3.20;90.90;;;;;;5033245;28;20032;-72
2020/12/13 07:51:47;;;;;;;29.33;16.92;;;3.20;90.90;;;;;;5030902;28;20041;-72
2020/12/13 07:54:15;;;;;;;31.88;18.08;;;3.20;90.90;;;;;;5030419;28;20053;-71
2020/12/13 07:56:42;;;;;;;30.52;17.20;;;3.20;91.00;;;;;;5028770;28;20048;-71
2020/12/13 07:59:18;;;;;;;26.60;16.13;;;3.20;90.90;;;;;;5028479;28;20131;-74
2020/12/13 08:01:52;;;;;;;27.80;16.83;;;3.20;90.70;;;;;;5030884;28;20128;-74
2020/12/13 08:04:35;;;;;;;29.35;16.92;;;3.30;90.60;;;;;;5032619;28;20083;-74
2020/12/13 08:07:05;;;;;;;30.80;17.75;;;3.20;90.50;;;;;;5031314;28;20108;-73
2020/12/13 08:09:32;;;;;;;28.30;16.38;;;3.20;90.40;;;;;;5029473;28;20029;-73
2020/12/13 08:11:58;;;;;;;26.60;16.60;;;3.30;90.60;;;;;;5029232;28;20076;-74
2020/12/13 08:14:25;;;;;;;26.15;14.75;;;3.20;90.20;;;;;;5028357;28;20379;-72
2020/12/13 08:16:53;;;;;;;27.73;14.82;;;3.30;90.20;;;;;;5026397;28;20053;-72
2020/12/13 08:19:32;;;;;;;26.83;15.80;;;3.30;89.90;;;;;;5032823;28;20030;-72
2020/12/13 08:22:01;;;;;;;26.45;14.48;;;3.20;90.00;;;;;;5029431;28;20573;-73
2020/12/13 08:24:27;;;;;;;28.95;15.40;;;3.30;90.00;;;;;;5030523;28;20091;-74
2020/12/13 08:27:00;;;;;;;23.50;15.07;;;3.20;90.20;;;;;;5029480;28;20164;-73
2020/12/13 08:29:33;;;;;;;20.02;13.95;;;3.30;90.00;;;;;;5029027;28;20112;-74
2020/12/13 08:32:00;;;;;;;25.45;15.40;;;3.30;89.60;;;;;;5031590;28;20049;-74
2020/12/13 08:34:29;;;;;;;25.88;15.40;;;3.20;89.60;;;;;;5032897;28;20107;-72
2020/12/13 08:36:56;;;;;;;27.65;18.13;;;3.30;89.70;;;;;;5032413;28;20040;-74
2020/12/13 08:39:33;;;;;;;29.50;17.67;;;3.20;89.40;;;;;;5031321;28;20073;-72
2020/12/13 08:42:01;;;;;;;32.08;19.45;;;3.20;89.90;;;;;;5031043;28;20025;-73
2020/12/13 08:44:37;;;;;;;30.30;18.45;;;3.20;90.10;;;;;;5030677;28;20053;-72
2020/12/13 08:47:05;;;;;;;27.52;17.95;;;3.20;90.30;;;;;;5024564;28;20017;-72
2020/12/13 08:49:39;;;;;;;30.55;19.73;;;3.20;90.20;;;;;;5032041;28;20025;-73
2020/12/13 08:52:25;;;;;;;34.53;20.15;;;3.20;90.00;;;;;;5032514;28;20025;-72
2020/12/13 08:54:53;;;;;;;32.65;19.42;;;3.20;90.20;;;;;;5031400;28;20849;-72
2020/12/13 08:57:25;;;;;;;30.92;19.92;;;3.20;90.20;;;;;;5030141;28;20028;-74
2020/12/13 08:59:59;;;;;;;33.15;20.15;;;3.20;89.70;;;;;;5031316;28;20033;-74
2020/12/13 09:02:24;;;;;;;33.20;20.13;;;3.20;89.10;;;;;;5032543;28;21999;-72
2020/12/13 09:04:58;;;;;;;33.70;20.67;;;3.10;89.80;;;;;;5032393;28;20081;-74
2020/12/13 09:07:31;;;;;;;31.00;19.17;;;3.20;89.40;;;;;;5031054;28;20398;-72
2020/12/13 09:10:09;;;;;;;31.85;19.70;;;3.20;89.40;;;;;;5028659;28;20036;-74
2020/12/13 09:12:37;;;;;;;31.10;18.15;;;3.20;89.20;;;;;;5028857;28;20386;-73
2020/12/13 09:15:17;;;;;;;28.23;18.33;;;3.20;88.50;;;;;;5029484;28;20018;-74
2020/12/13 09:17:55;;;;;;;33.08;18.98;;;3.20;89.30;;;;;;5030597;28;20030;-72
2020/12/13 09:20:28;;;;;;;26.80;17.65;;;3.20;89.20;;;;;;5029440;28;20060;-72
2020/12/13 09:23:12;;;;;;;30.10;18.00;;;3.20;88.40;;;;;;5029297;28;20097;-72
2020/12/13 09:25:43;;;;;;;31.63;19.08;;;3.10;88.50;;;;;;5028705;28;20030;-74
2020/12/13 09:28:10;;;;;;;29.70;18.42;;;3.10;88.90;;;;;;5031135;28;20017;-74
2020/12/13 09:30:37;;;;;;;27.35;17.75;;;3.10;89.20;;;;;;5030886;28;20472;-74
2020/12/13 09:33:03;;;;;;;28.50;18.60;;;3.00;89.30;;;;;;5029212;28;20030;-73
2020/12/13 09:35:30;;;;;;;26.23;17.25;;;3.00;89.20;;;;;;5025861;28;20490;-72
2020/12/13 09:37:57;;;;;;;27.17;17.85;;;3.10;89.50;;;;;;5029755;28;20025;-73
2020/12/13 09:40:22;;;;;;;29.15;18.15;;;3.10;89.20;;;;;;5032624;28;20032;-72
2020/12/13 09:42:49;;;;;;;27.00;17.92;;;3.10;89.70;;;;;;5030644;28;20112;-74
2020/12/13 09:45:14;;;;;;;27.77;16.58;;;3.20;89.10;;;;;;5028660;28;20037;-74
2020/12/13 09:47:40;;;;;;;25.90;17.70;;;3.30;88.40;;;;;;5027512;28;20026;-75
2020/12/13 09:50:06;;;;;;;25.83;17.63;;;3.30;88.50;;;;;;5031684;28;20017;-74
2020/12/13 09:52:32;;;;;;;32.13;19.05;;;3.30;88.80;;;;;;5032104;28;20025;-72
2020/12/13 09:54:58;;;;;;;24.20;16.08;;;3.30;88.60;;;;;;5030581;28;20112;-74
2020/12/13 09:57:24;;;;;;;30.83;17.58;;;3.30;88.20;;;;;;5027807;28;20018;-74
2020/12/13 09:59:50;;;;;;;27.27;17.42;;;3.30;87.80;;;;;;5030977;28;20037;-72
2020/12/13 10:02:15;;;;;;;27.75;16.50;;;3.30;88.00;;;;;;5011815;28;20125;-72
2020/12/13 10:04:41;;;;;;;25.75;16.67;;;3.30;87.80;;;;;;5029029;28;20079;-73
2020/12/13 10:09:32;;;;;;;26.08;16.83;;;3.30;87.90;;;;;;5026643;28;20348;-73
2020/12/13 10:11:58;;;;;;;26.38;17.38;;;3.40;87.30;;;;;;5027173;28;20112;-72
2020/12/13 10:14:24;;;;;;;30.23;17.10;;;3.30;87.40;;;;;;5027000;28;20045;-73
2020/12/13 10:16:50;;;;;;;27.23;16.50;;;3.30;87.70;;;;;;5022920;28;20623;-73
2020/12/13 10:19:15;;;;;;;28.77;17.50;;;3.40;87.70;;;;;;5029621;28;20021;-72
2020/12/13 10:21:41;;;;;;;22.70;15.65;;;3.30;87.50;;;;;;5026414;28;20036;-75
2020/12/13 10:24:07;;;;;;;29.67;17.02;;;3.40;87.20;;;;;;5026826;28;20030;-73
2020/12/13 10:26:36;;;;;;;25.30;16.60;;;3.40;86.90;;;;;;5029581;28;20022;-74
2020/12/13 10:29:03;;;;;;;26.95;17.35;;;3.40;87.40;;;;;;5026775;28;20026;-72
2020/12/13 10:31:37;;;;;;;30.25;18.95;;;3.40;87.40;;;;;;5026159;28;20085;-72
2020/12/13 10:34:05;;;;;;;27.70;17.33;;;3.30;87.70;;;;;;5027792;28;20108;-74
2020/12/13 10:36:33;;;;;;;26.08;17.15;;;3.30;87.90;;;;;;5029550;28;20025;-74
2020/12/13 10:38:59;;;;;;;34.92;19.98;;;3.30;88.10;;;;;;5028457;28;20383;-74
2020/12/13 10:41:25;;;;;;;29.60;18.92;;;3.20;88.20;;;;;;5030774;28;20124;-72
2020/12/13 10:43:51;;;;;;;30.60;19.02;;;3.30;88.20;;;;;;5031440;28;20028;-72
2020/12/13 10:46:18;;;;;;;27.70;18.48;;;3.20;88.20;;;;;;5033738;28;20379;-74
2020/12/13 10:48:44;;;;;;;27.65;19.05;;;3.30;87.90;;;;;;5032879;28;20095;-72
2020/12/13 10:51:10;;;;;;;30.70;19.50;;;3.40;87.40;;;;;;5031606;28;20025;-72
2020/12/13 10:53:36;;;;;;;28.92;19.08;;;3.40;87.50;;;;;;5030175;28;20029;-73
2020/12/13 10:56:05;;;;;;;32.13;20.23;;;3.40;88.40;;;;;;5025762;28;20594;-74
2020/12/13 10:58:31;;;;;;;30.40;20.50;;;3.40;88.20;;;;;;5030716;28;20442;-72
2020/12/13 11:00:57;;;;;;;32.28;19.33;;;3.40;87.70;;;;;;5029902;28;20033;-72
2020/12/13 11:03:23;;;;;;;31.95;19.48;;;3.50;87.40;;;;;;5034372;28;20109;-73
2020/12/13 11:05:49;;;;;;;28.13;18.13;;;3.40;87.00;;;;;;5032550;28;20021;-73
2020/12/13 11:08:15;;;;;;;30.73;20.42;;;3.40;87.30;;;;;;5032607;28;20028;-72
2020/12/13 11:10:48;;;;;;;31.42;21.73;;;3.30;87.70;;;;;;5034859;28;20022;-73
2020/12/13 11:13:14;;;;;;;32.55;20.77;;;3.40;87.60;;;;;;5033806;28;20520;-72
2020/12/13 11:15:44;;;;;;;31.63;20.10;;;3.30;87.50;;;;;;5031103;28;20030;-72
2020/12/13 11:18:10;;;;;;;32.10;20.33;;;3.30;87.40;;;;;;5032307;28;20025;-73
2020/12/13 11:20:36;;;;;;;34.88;21.55;;;3.30;87.60;;;;;;5032020;28;20055;-71
2020/12/13 11:23:02;;;;;;;33.85;21.77;;;3.20;87.90;;;;;;5028404;28;20026;-73
2020/12/13 11:25:27;;;;;;;35.83;22.63;;;3.20;88.00;;;;;;5035327;28;20394;-73
2020/12/13 11:27:53;;;;;;;35.10;21.75;;;3.20;87.40;;;;;;5030863;28;20064;-73
2020/12/13 11:30:19;;;;;;;34.45;21.02;;;3.20;87.60;;;;;;5031443;28;20048;-73
2020/12/13 11:32:45;;;;;;;37.63;22.77;;;3.20;87.50;;;;;;5024690;28;20033;-71
2020/12/13 11:35:13;;;;;;;35.00;23.02;;;3.20;87.40;;;;;;5028037;28;20045;-73
2020/12/13 11:37:39;;;;;;;38.63;22.70;;;3.30;87.60;;;;;;5034321;28;20021;-73
2020/12/13 11:40:06;;;;;;;35.58;21.67;;;3.30;87.50;;;;;;5022411;28;20518;-72
2020/12/13 11:42:31;;;;;;;34.15;22.20;;;3.30;86.90;;;;;;5028872;28;20084;-73
2020/12/13 11:44:58;;;;;;;36.35;22.05;;;3.30;87.20;;;;;;5027716;28;20041;-74
2020/12/13 11:47:25;;;;;;;33.35;21.50;;;3.30;86.90;;;;;;5022172;28;20119;-74
2020/12/13 11:49:51;;;;;;;31.15;20.77;;;3.30;86.90;;;;;;5020701;28;20026;-75
2020/12/13 11:52:16;;;;;;;34.38;21.35;;;3.30;87.50;;;;;;5027498;28;20069;-73
2020/12/13 11:54:43;;;;;;;31.90;20.52;;;3.40;86.50;;;;;;5025272;28;20033;-73
2020/12/13 11:57:09;;;;;;;30.23;20.40;;;3.30;86.10;;;;;;5023055;28;20018;-74
2020/12/13 11:59:35;;;;;;;30.75;19.13;;;3.30;85.60;;;;;;5021458;28;20200;-73
2020/12/13 12:02:01;;;;;;;29.63;19.75;;;3.30;85.80;;;;;;5030080;28;20486;-73
2020/12/13 12:04:26;;;;;;;26.73;18.40;;;3.30;86.40;;;;;;5029364;28;20037;-73
2020/12/13 12:06:53;;;;;;;28.30;18.35;;;3.30;86.20;;;;;;5029651;28;20430;-74
2020/12/13 12:09:19;;;;;;;20.65;14.07;;;3.30;86.80;;;;;;5023804;28;20022;-74
2020/12/13 12:11:45;;;;;;;24.35;16.77;;;3.30;86.10;;;;;;5028022;28;20029;-74
2020/12/13 12:14:11;;;;;;;25.67;17.50;;;3.30;85.90;;;;;;5017699;28;20156;-73
2020/12/13 12:16:42;;;;;;;24.08;17.20;;;3.30;86.00;;;;;;5024797;28;20548;-73
2020/12/13 12:19:08;;;;;;;23.50;16.70;;;3.30;86.10;;;;;;5028888;28;20033;-74
2020/12/13 12:21:35;;;;;;;26.77;16.88;;;3.30;86.10;;;;;;5025887;28;20426;-74
2020/12/13 12:24:02;;;;;;;24.20;17.33;;;3.30;86.70;;;;;;5023724;28;20061;-73
2020/12/13 12:26:34;;;;;;;25.80;16.50;;;3.30;86.80;;;;;;5028305;28;20037;-73
2020/12/13 12:29:02;;;;;;;24.35;15.65;;;3.30;86.70;;;;;;5027190;28;20030;-74
2020/12/13 12:31:28;;;;;;;20.17;13.98;;;3.30;86.20;;;;;;5018044;28;20530;-74
2020/12/13 12:33:55;;;;;;;18.73;13.35;;;3.40;86.00;;;;;;5028903;28;20041;-73
2020/12/13 12:36:23;;;;;;;15.38;11.75;;;3.50;85.00;;;;;;5024864;28;20498;-73
2020/12/13 12:38:50;;;;;;;20.67;14.40;;;3.50;84.00;;;;;;5027963;28;20033;-73
2020/12/13 12:41:18;;;;;;;19.83;13.05;;;3.50;83.80;;;;;;5028983;28;20080;-73
2020/12/13 12:43:45;;;;;;;19.20;12.90;;;3.60;83.60;;;;;;5030292;28;20025;-73
2020/12/13 12:46:11;;;;;;;18.35;12.93;;;3.50;83.40;;;;;;5029628;28;20080;-73
2020/12/13 12:48:38;;;;;;;21.20;14.30;;;3.50;84.30;;;;;;5030208;28;20220;-74
2020/12/13 12:51:06;;;;;;;19.88;12.38;;;3.40;85.50;;;;;;5029692;28;20057;-74
2020/12/13 12:53:32;;;;;;;18.20;12.45;;;3.40;84.20;;;;;;5026925;28;20093;-73